Time;durP1;ratioP1;P1;durP2;ratioP2;P2;SDS_P1;SDS_P2;PMS_P1;PMS_P2;Temp;Humidity;BMP_temperature;BMP_pressure;BME280_temperature;BME280_humidity;BME280_pressure;Samples;Min_cycle;Max_cycle;Signal;HPM_P1;HPM_P2
2023/02/12 00:00:41;;;;;;;65.43;29.60;;;128.60;2201.60;;;;;;5037074;28;20475;-78
2023/02/12 00:03:07;;;;;;;53.30;29.15;;;128.50;2201.60;;;;;;5034271;28;20510;-79
2023/02/12 00:05:33;;;;;;;;;;;128.50;2227.20;;;;;;5044975;28;20060;-78
2023/02/12 00:07:58;;;;;;;56.67;28.17;;;128.40;2227.20;;;;;;5029806;28;19905;-78
2023/02/12 00:10:24;;;;;;;;;;;128.50;2227.20;;;;;;5030407;28;20033;-78
2023/02/12 00:12:52;;;;;;;63.45;27.73;;;128.50;2252.80;;;;;;5055393;28;19971;-78
2023/02/12 00:15:18;;;;;;;55.13;27.70;;;128.50;2252.80;;;;;;5042526;28;20033;-78
2023/02/12 00:17:44;;;;;;;;;;;128.40;2252.80;;;;;;5037601;28;20028;-78
2023/02/12 00:20:10;;;;;;;54.78;28.13;;;128.40;2252.80;;;;;;5033649;28;19991;-78
2023/02/12 00:22:35;;;;;;;51.20;26.73;;;128.40;2252.80;;;;;;5032153;28;20024;-78
2023/02/12 00:25:01;;;;;;;;;;;128.40;2227.20;;;;;;5037731;28;20544;-78
2023/02/12 00:27:27;;;;;;;57.55;29.55;;;128.30;2227.20;;;;;;5038113;28;19944;-78
2023/02/12 00:29:52;;;;;;;;;;;128.40;2227.20;;;;;;5032402;28;20039;-78
2023/02/12 00:32:18;;;;;;;47.97;26.00;;;128.50;2227.20;;;;;;5041123;28;20332;-78
2023/02/12 00:34:47;;;;;;;;;;;128.40;2201.60;;;;;;5028855;28;20491;-78
2023/02/12 00:37:13;;;;;;;63.50;29.92;;;128.50;2227.20;;;;;;5041600;28;19921;-78
2023/02/12 00:39:38;;;;;;;;;;;128.50;2227.20;;;;;;5032618;28;20424;-78
2023/02/12 00:42:04;;;;;;;57.65;27.77;;;128.50;2227.20;;;;;;5038752;28;19929;-79
2023/02/12 00:44:30;;;;;;;;;;;128.50;2227.20;;;;;;5036276;28;20499;-79
2023/02/12 00:46:56;;;;;;;59.28;28.00;;;128.60;2252.80;;;;;;5048039;28;20277;-79
2023/02/12 00:49:23;;;;;;;57.45;28.92;;;128.50;2252.80;;;;;;5038233;28;20065;-79
2023/02/12 00:51:49;;;;;;;59.70;28.75;;;128.50;2252.80;;;;;;5049488;28;20017;-79
2023/02/12 00:54:14;;;;;;;;;;;128.50;2252.80;;;;;;5052535;28;20032;-79
2023/02/12 00:56:40;;;;;;;53.45;26.77;;;128.40;2252.80;;;;;;5051842;28;19912;-79
2023/02/12 00:59:06;;;;;;;;;;;128.40;2252.80;;;;;;5052635;28;20497;-78
2023/02/12 01:01:33;;;;;;;54.38;27.95;;;128.40;2252.80;;;;;;5051105;28;19908;-78
2023/02/12 01:03:58;;;;;;;55.53;28.55;;;128.40;2252.80;;;;;;5043135;28;20025;-78
2023/02/12 01:06:24;;;;;;;;;;;128.40;2252.80;;;;;;5052412;28;20024;-79
2023/02/12 01:08:51;;;;;;;57.33;28.52;;;128.30;2252.80;;;;;;5044213;28;19911;-78
2023/02/12 01:11:17;;;;;;;53.38;27.55;;;128.30;2252.80;;;;;;5049215;28;20033;-79
2023/02/12 01:13:42;;;;;;;;;;;128.30;2252.80;;;;;;5052085;28;20053;-79
2023/02/12 01:16:13;;;;;;;55.05;28.75;;;128.20;2252.80;;;;;;5051861;28;20326;-79
2023/02/12 01:18:39;;;;;;;54.13;28.50;;;128.30;2252.80;;;;;;5052065;28;20048;-79
2023/02/12 01:21:11;;;;;;;;;;;128.30;2252.80;;;;;;5039025;28;20065;-78
2023/02/12 01:23:37;;;;;;;53.40;28.33;;;128.20;2252.80;;;;;;5055300;28;19919;-79
2023/02/12 01:26:03;;;;;;;;;;;128.40;2252.80;;;;;;5055939;28;20186;-79
2023/02/12 01:28:29;;;;;;;58.05;28.00;;;128.50;2252.80;;;;;;5046371;28;20037;-79
2023/02/12 01:30:54;;;;;;;;;;;128.40;2252.80;;;;;;5057443;28;20560;-79
2023/02/12 01:33:20;;;;;;;54.90;28.67;;;128.40;2252.80;;;;;;5055987;28;19995;-78
2023/02/12 01:35:46;;;;;;;;;;;128.40;2252.80;;;;;;5055783;28;20043;-79
2023/02/12 01:38:11;;;;;;;49.13;28.23;;;128.60;2252.80;;;;;;5055226;28;19908;-78
2023/02/12 01:40:37;;;;;;;;;;;128.50;2252.80;;;;;;5055346;28;20048;-78
2023/02/12 01:43:03;;;;;;;54.10;27.85;;;128.50;2252.80;;;;;;5055632;28;20385;-78
2023/02/12 01:45:41;;;;;;;;;;;128.40;2252.80;;;;;;5056895;28;20029;-78
2023/02/12 01:48:07;;;;;;;50.47;26.88;;;128.30;2252.80;;;;;;5052897;28;19974;-78
2023/02/12 01:50:33;;;;;;;;;;;128.30;2252.80;;;;;;5026986;28;20030;-78
2023/02/12 01:52:59;;;;;;;60.33;27.27;;;128.30;2252.80;;;;;;5053013;28;19912;-78
2023/02/12 01:55:24;;;;;;;;;;;128.20;2252.80;;;;;;5055569;28;20025;-79
2023/02/12 01:57:50;;;;;;;54.95;26.52;;;128.20;2252.80;;;;;;5034526;28;19905;-79
2023/02/12 02:00:21;;;;;;;57.42;28.85;;;128.10;2252.80;;;;;;5048296;28;20079;-79
2023/02/12 02:02:53;;;;;;;56.78;29.25;;;128.20;2252.80;;;;;;5041133;28;20613;-78
2023/02/12 02:05:58;;;;;;;48.15;27.48;;;128.20;2252.80;;;;;;5054319;28;20124;-78
2023/02/12 02:08:24;;;;;;;49.25;25.80;;;128.20;2252.80;;;;;;4990766;28;20133;-78
2023/02/12 02:10:50;;;;;;;62.83;29.48;;;128.00;2252.80;;;;;;4997536;28;20364;-79
2023/02/12 02:16:09;;;;;;;51.58;26.45;;;128.10;2252.80;;;;;;4992294;28;19952;-80
2023/02/12 02:18:44;;;;;;;52.80;27.98;;;128.00;2252.80;;;;;;4997761;28;20479;-79
2023/02/12 02:21:34;;;;;;;51.92;28.60;;;128.00;2252.80;;;;;;4997779;28;20447;-79
2023/02/12 02:24:33;;;;;;;57.00;28.60;;;103.30;2227.20;;;;;;4997858;28;20467;-79
2023/02/12 02:27:05;;;;;;;54.83;27.75;;;103.30;2227.20;;;;;;4994457;28;20038;-79
2023/02/12 02:30:07;;;;;;;49.40;27.23;;;103.30;2227.20;;;;;;4978315;28;20022;-79
2023/02/12 02:32:49;;;;;;;54.22;27.92;;;103.30;2227.20;;;;;;4996053;28;20391;-79
2023/02/12 02:35:28;;;;;;;61.55;29.23;;;103.30;2227.20;;;;;;5013734;28;20026;-79
2023/02/12 02:37:57;;;;;;;55.65;28.67;;;103.30;2227.20;;;;;;4997466;28;20518;-79
2023/02/12 02:40:26;;;;;;;57.42;29.08;;;128.00;2252.80;;;;;;5013693;28;20049;-79
2023/02/12 02:43:01;;;;;;;59.35;28.85;;;128.10;2252.80;;;;;;4998226;28;20125;-79
2023/02/12 02:45:36;;;;;;;51.17;25.65;;;128.20;2252.80;;;;;;5054267;28;20033;-79
2023/02/12 02:48:13;;;;;;;52.83;26.83;;;128.20;2252.80;;;;;;5054272;28;20154;-79
2023/02/12 02:50:45;;;;;;;37.70;18.92;;;128.10;2252.80;;;;;;5054403;28;20536;-80
2023/02/12 02:53:26;;;;;;;54.75;26.95;;;128.10;2252.80;;;;;;5042872;28;20397;-79
2023/02/12 02:55:55;;;;;;;49.40;26.13;;;128.00;2252.80;;;;;;5054007;28;20029;-78
2023/02/12 02:58:28;;;;;;;55.20;26.70;;;128.20;2252.80;;;;;;5053751;28;20017;-78
2023/02/12 03:01:06;;;;;;;54.05;26.80;;;128.10;2252.80;;;;;;5053353;28;20032;-79
2023/02/12 03:03:49;;;;;;;51.20;26.17;;;128.00;2252.80;;;;;;5053613;28;20075;-79
2023/02/12 03:06:26;;;;;;;53.17;27.25;;;128.10;2252.80;;;;;;5031095;28;20053;-79
2023/02/12 03:09:01;;;;;;;44.78;25.17;;;128.00;2252.80;;;;;;5052919;28;20044;-79
2023/02/12 03:11:32;;;;;;;52.08;28.17;;;128.10;2252.80;;;;;;5054934;28;20486;-79
2023/02/12 03:14:26;;;;;;;48.17;26.27;;;128.20;2252.80;;;;;;5040385;28;20032;-79
2023/02/12 03:17:04;;;;;;;45.90;25.02;;;128.20;2252.80;;;;;;5053501;28;20028;-78
2023/02/12 03:19:36;;;;;;;50.03;26.90;;;128.10;2252.80;;;;;;5054783;28;20970;-79
2023/02/12 03:22:07;;;;;;;52.70;26.20;;;128.20;2252.80;;;;;;5054945;28;20079;-79
2023/02/12 03:24:54;;;;;;;45.15;24.90;;;128.10;2252.80;;;;;;5046497;28;20032;-79
2023/02/12 03:27:32;;;;;;;44.33;24.75;;;128.20;2252.80;;;;;;5043899;28;20029;-79
2023/02/12 03:29:59;;;;;;;44.55;24.08;;;128.20;2252.80;;;;;;5053080;28;20139;-79
2023/02/12 03:32:34;;;;;;;48.05;23.83;;;128.10;2252.80;;;;;;5046138;28;20017;-79
2023/02/12 03:35:08;;;;;;;52.75;24.73;;;103.30;2227.20;;;;;;5049680;28;20130;-78
2023/02/12 03:37:39;;;;;;;41.20;23.95;;;128.00;2252.80;;;;;;5046565;28;20021;-79
2023/02/12 03:40:31;;;;;;;49.72;24.45;;;103.30;2227.20;;;;;;5052895;28;20041;-78
2023/02/12 03:43:21;;;;;;;50.63;26.88;;;103.30;2227.20;;;;;;5052933;28;20494;-78
2023/02/12 03:46:13;;;;;;;58.20;26.20;;;103.30;2227.20;;;;;;5052103;28;20053;-78
2023/02/12 03:48:43;;;;;;;73.05;33.80;;;128.00;2252.80;;;;;;5044467;28;20021;-79
2023/02/12 03:51:25;;;;;;;68.43;32.38;;;128.20;2252.80;;;;;;5054199;28;20028;-79
2023/02/12 03:53:51;;;;;;;71.68;36.80;;;128.30;2252.80;;;;;;5052928;28;20025;-79
2023/02/12 03:56:21;;;;;;;;;;;128.40;2252.80;;;;;;5053316;28;20021;-79
2023/02/12 03:58:47;;;;;;;87.78;44.45;;;128.40;2252.80;;;;;;5052697;28;20038;-79
2023/02/12 04:01:13;;;;;;;;;;;128.30;2252.80;;;;;;5036437;28;20120;-79
2023/02/12 04:03:39;;;;;;;53.08;25.63;;;128.40;2252.80;;;;;;5036317;28;19915;-79
2023/02/12 04:06:15;;;;;;;50.13;26.25;;;128.40;2252.80;;;;;;5025841;28;20044;-79
2023/02/12 04:08:41;;;;;;;38.00;20.70;;;128.40;2252.80;;;;;;5053641;28;20035;-78
2023/02/12 04:11:16;;;;;;;;;;;128.40;2252.80;;;;;;5052766;28;20041;-79
2023/02/12 04:13:55;;;;;;;43.95;23.25;;;128.40;2252.80;;;;;;5052371;28;19999;-79
2023/02/12 04:16:36;;;;;;;38.58;21.52;;;128.40;2252.80;;;;;;5052677;28;20036;-78
2023/02/12 04:19:01;;;;;;;41.92;21.80;;;128.40;2252.80;;;;;;5053707;28;20092;-78
2023/02/12 04:21:46;;;;;;;;;;;128.40;2252.80;;;;;;5052753;28;20124;-78
2023/02/12 04:25:07;;;;;;;52.25;26.63;;;128.60;2252.80;;;;;;5053529;28;19998;-79
2023/02/12 04:27:59;;;;;;;53.15;26.83;;;128.60;2252.80;;;;;;4976189;28;20030;-79
2023/02/12 04:30:44;;;;;;;68.85;31.98;;;128.60;2252.80;;;;;;4962857;28;20129;-78
2023/02/12 04:33:13;;;;;;;67.43;31.45;;;128.70;2252.80;;;;;;4975662;28;20100;-79
2023/02/12 04:36:08;;;;;;;59.97;28.92;;;128.60;2252.80;;;;;;4976023;28;20118;-78
2023/02/12 04:38:48;;;;;;;45.45;24.83;;;128.70;2252.80;;;;;;4979551;28;20089;-78
2023/02/12 04:41:14;;;;;;;49.80;23.98;;;128.70;2252.80;;;;;;4974591;28;20053;-78
2023/02/12 04:43:40;;;;;;;;;;;128.70;2252.80;;;;;;4976130;28;20403;-78
2023/02/12 04:46:07;;;;;;;45.85;23.02;;;128.70;2252.80;;;;;;4991955;28;19941;-78
2023/02/12 04:48:36;;;;;;;43.15;20.48;;;128.50;2252.80;;;;;;4975486;28;20074;-78
2023/02/12 04:51:01;;;;;;;41.05;22.42;;;128.50;2252.80;;;;;;4963756;28;20034;-79
2023/02/12 04:53:27;;;;;;;;;;;128.60;2252.80;;;;;;4976064;28;20559;-79
2023/02/12 04:55:54;;;;;;;46.33;21.63;;;128.50;2252.80;;;;;;4963358;28;20375;-78
2023/02/12 04:58:20;;;;;;;42.72;22.85;;;128.50;2252.80;;;;;;4976467;28;20031;-79
2023/02/12 05:00:45;;;;;;;;;;;128.50;2252.80;;;;;;5005074;28;20040;-79
2023/02/12 05:03:11;;;;;;;44.38;21.60;;;128.60;2252.80;;;;;;5057046;28;20354;-79
2023/02/12 05:05:36;;;;;;;;;;;128.70;2252.80;;;;;;5052946;28;20611;-78
2023/02/12 05:08:02;;;;;;;55.95;27.55;;;128.80;2252.80;;;;;;5049151;28;20289;-79
2023/02/12 05:10:28;;;;;;;;;;;128.80;2252.80;;;;;;5053216;28;20386;-79
2023/02/12 05:12:54;;;;;;;58.35;29.35;;;128.80;2252.80;;;;;;5056835;28;19991;-78
2023/02/12 05:15:20;;;;;;;49.97;25.98;;;153.60;2252.80;;;;;;5057037;28;20497;-79
2023/02/12 05:17:46;;;;;;;53.17;28.35;;;128.70;2252.80;;;;;;5039375;28;20044;-79
2023/02/12 05:20:12;;;;;;;;;;;128.90;2252.80;;;;;;5053023;28;20511;-78
2023/02/12 05:22:38;;;;;;;49.20;25.73;;;128.80;2252.80;;;;;;5055582;28;20011;-78
2023/02/12 05:25:04;;;;;;;;;;;128.80;2252.80;;;;;;5055867;28;20476;-78
2023/02/12 05:27:30;;;;;;;52.35;24.63;;;128.80;2252.80;;;;;;5055323;28;19905;-78
2023/02/12 05:29:55;;;;;;;;;;;128.80;2252.80;;;;;;5056877;28;20021;-79
2023/02/12 05:32:22;;;;;;;56.65;25.02;;;128.90;2252.80;;;;;;5056513;28;20361;-79
2023/02/12 05:34:48;;;;;;;51.22;25.88;;;128.80;2252.80;;;;;;5055130;28;20017;-79
2023/02/12 05:37:13;;;;;;;;;;;128.80;2252.80;;;;;;5046381;28;20511;-79
2023/02/12 05:39:39;;;;;;;52.65;23.70;;;128.80;2252.80;;;;;;5054617;28;19908;-78
2023/02/12 05:42:05;;;;;;;;;;;128.80;2252.80;;;;;;5039283;28;20040;-78
2023/02/12 05:44:30;;;;;;;52.45;23.30;;;128.80;2252.80;;;;;;5056414;28;20354;-79
2023/02/12 05:46:56;;;;;;;;;;;128.80;2252.80;;;;;;5055760;28;20482;-79
2023/02/12 05:49:22;;;;;;;104.47;42.28;;;128.80;2252.80;;;;;;5055134;28;19915;-79
2023/02/12 05:51:48;;;;;;;;;;;128.80;2252.80;;;;;;5055924;28;20025;-79
2023/02/12 05:54:13;;;;;;;127.18;49.97;;;128.70;2252.80;;;;;;5054968;28;19919;-79
2023/02/12 05:56:43;;;;;;;;;;;128.70;2252.80;;;;;;5055613;28;20021;-79
2023/02/12 05:59:18;;;;;;;108.38;46.60;;;128.70;2252.80;;;;;;5054901;28;19954;-79
2023/02/12 06:01:45;;;;;;;102.53;42.35;;;128.60;2252.80;;;;;;5054655;28;20021;-79
2023/02/12 06:04:26;;;;;;;104.70;43.75;;;128.70;2252.80;;;;;;5048644;28;20032;-78
2023/02/12 06:06:54;;;;;;;92.13;41.03;;;128.70;2252.80;;;;;;5060159;28;20036;-78
2023/02/12 06:09:20;;;;;;;93.57;41.97;;;128.70;2252.80;;;;;;5041279;28;20025;-78
2023/02/12 06:11:46;;;;;;;97.13;43.58;;;128.70;2252.80;;;;;;5044853;28;20068;-78
2023/02/12 06:14:14;;;;;;;;;;;128.70;2252.80;;;;;;5054160;28;20053;-78
2023/02/12 06:16:40;;;;;;;92.35;40.03;;;128.60;2252.80;;;;;;5026010;28;19909;-78
2023/02/12 06:19:06;;;;;;;;;;;128.50;2252.80;;;;;;5048538;28;20398;-78
2023/02/12 06:21:32;;;;;;;62.78;32.72;;;128.80;2252.80;;;;;;5043762;28;19911;-78
2023/02/12 06:23:58;;;;;;;62.30;30.38;;;128.60;2252.80;;;;;;5029696;28;20552;-78
2023/02/12 06:26:24;;;;;;;;;;;128.70;2252.80;;;;;;5035975;28;20040;-78
2023/02/12 06:28:51;;;;;;;51.80;24.67;;;128.60;2252.80;;;;;;5030634;28;19909;-77
2023/02/12 06:31:24;;;;;;;49.35;25.20;;;128.60;2252.80;;;;;;5037730;28;20025;-78
2023/02/12 06:33:50;;;;;;;59.88;29.48;;;128.50;2252.80;;;;;;5049557;28;20395;-77
2023/02/12 06:36:17;;;;;;;52.65;28.30;;;128.40;2252.80;;;;;;5028453;28;20021;-78
2023/02/12 06:38:42;;;;;;;53.28;26.80;;;128.50;2252.80;;;;;;5040953;28;20029;-78
2023/02/12 06:41:08;;;;;;;;;;;128.50;2252.80;;;;;;5034335;28;20059;-79
2023/02/12 06:43:34;;;;;;;49.63;25.63;;;128.40;2252.80;;;;;;5039413;28;19908;-78
2023/02/12 06:46:01;;;;;;;;;;;128.30;2252.80;;;;;;5035296;28;20051;-78
2023/02/12 06:48:27;;;;;;;56.50;25.33;;;128.20;2252.80;;;;;;5038788;28;20058;-79
2023/02/12 06:50:52;;;;;;;;;;;128.20;2252.80;;;;;;5030451;28;20061;-78
2023/02/12 06:53:18;;;;;;;51.78;25.13;;;128.30;2252.80;;;;;;5021272;28;20010;-78
2023/02/12 06:55:44;;;;;;;;;;;128.30;2252.80;;;;;;5044730;28;20035;-78
2023/02/12 06:58:09;;;;;;;51.47;25.80;;;128.30;2252.80;;;;;;5045519;28;19917;-78
2023/02/12 07:00:35;;;;;;;;;;;128.20;2252.80;;;;;;5022574;28;20032;-77
2023/02/12 07:03:00;;;;;;;52.15;26.67;;;128.30;2252.80;;;;;;5036988;28;19905;-76
2023/02/12 07:05:26;;;;;;;;;;;128.20;2252.80;;;;;;5045147;28;20041;-78
2023/02/12 07:07:52;;;;;;;51.70;25.65;;;128.20;2252.80;;;;;;5033797;28;19950;-79
2023/02/12 07:10:18;;;;;;;;;;;128.30;2252.80;;;;;;5036976;28;20140;-79
2023/02/12 07:12:44;;;;;;;60.95;28.38;;;128.40;2252.80;;;;;;5031555;28;19920;-78
2023/02/12 07:15:09;;;;;;;;;;;128.30;2252.80;;;;;;5049057;28;20031;-78
2023/02/12 07:17:35;;;;;;;57.17;28.20;;;128.40;2252.80;;;;;;5044974;28;19915;-77
2023/02/12 07:20:01;;;;;;;;;;;128.40;2252.80;;;;;;5048098;28;20090;-76
2023/02/12 07:22:27;;;;;;;54.10;28.70;;;128.60;2252.80;;;;;;5049509;28;19909;-77
2023/02/12 07:24:52;;;;;;;;;;;128.40;2252.80;;;;;;5035624;28;20045;-79
2023/02/12 07:27:18;;;;;;;53.38;26.90;;;128.40;2252.80;;;;;;5027471;28;19908;-82
2023/02/12 07:29:44;;;;;;;;;;;128.40;2252.80;;;;;;5035226;28;20025;-78
2023/02/12 07:32:09;;;;;;;41.30;22.20;;;128.60;2252.80;;;;;;5053240;28;19915;-80
2023/02/12 07:34:35;;;;;;;;;;;128.50;2252.80;;;;;;5040170;28;20505;-80
2023/02/12 07:37:01;;;;;;;47.30;24.70;;;128.40;2252.80;;;;;;5038235;28;20378;-78
2023/02/12 07:39:26;;;;;;;;;;;128.40;2252.80;;;;;;5032919;28;20025;-80
2023/02/12 07:41:52;;;;;;;51.10;24.92;;;128.50;2252.80;;;;;;5047731;28;20043;-78
2023/02/12 07:44:18;;;;;;;;;;;128.40;2252.80;;;;;;5043703;28;20028;-77
2023/02/12 07:46:47;;;;;;;45.95;23.17;;;128.40;2252.80;;;;;;5032846;28;19913;-77
2023/02/12 07:49:17;;;;;;;41.88;22.73;;;128.50;2252.80;;;;;;5033711;28;20517;-77
2023/02/12 07:51:43;;;;;;;41.72;21.42;;;128.40;2252.80;;;;;;5051145;28;20436;-77
2023/02/12 07:54:10;;;;;;;39.40;21.80;;;128.40;2252.80;;;;;;5029775;28;20377;-77
2023/02/12 07:56:38;;;;;;;41.70;22.45;;;128.50;2252.80;;;;;;5042645;28;20029;-76
2023/02/12 07:59:06;;;;;;;43.92;21.67;;;128.60;2252.80;;;;;;5059047;28;20028;-77
2023/02/12 08:01:34;;;;;;;43.55;22.55;;;128.40;2252.80;;;;;;5044405;28;20025;-78
2023/02/12 08:04:07;;;;;;;42.38;23.08;;;128.40;2252.80;;;;;;5040641;28;20029;-77
2023/02/12 08:06:35;;;;;;;38.45;21.35;;;128.50;2252.80;;;;;;5038977;28;20037;-78
2023/02/12 08:09:04;;;;;;;43.95;22.27;;;128.60;2252.80;;;;;;5033510;28;20608;-77
2023/02/12 08:11:30;;;;;;;37.85;21.38;;;128.60;2252.80;;;;;;5045181;28;20044;-79
2023/02/12 08:13:57;;;;;;;41.65;23.42;;;128.70;2252.80;;;;;;5035711;28;20070;-78
2023/02/12 08:16:25;;;;;;;40.88;22.33;;;128.60;2252.80;;;;;;5035240;28;20040;-79
2023/02/12 08:18:52;;;;;;;43.72;22.27;;;128.50;2252.80;;;;;;5026557;28;20075;-78
2023/02/12 08:21:24;;;;;;;44.72;24.45;;;128.50;2252.80;;;;;;5026750;28;20029;-79
2023/02/12 08:23:52;;;;;;;43.75;22.05;;;128.60;2252.80;;;;;;5035506;28;20037;-80
2023/02/12 08:26:24;;;;;;;42.95;23.20;;;128.60;2252.80;;;;;;5031798;28;20052;-80
2023/02/12 08:28:53;;;;;;;48.28;24.23;;;128.60;2252.80;;;;;;5040681;28;20024;-81
2023/02/12 08:31:26;;;;;;;45.28;25.17;;;128.70;2252.80;;;;;;5052104;28;20475;-81
2023/02/12 08:33:53;;;;;;;50.65;26.77;;;128.80;2252.80;;;;;;5038540;28;20051;-81
2023/02/12 08:36:22;;;;;;;43.55;23.98;;;128.90;2252.80;;;;;;5039960;28;20447;-79
2023/02/12 08:38:48;;;;;;;50.00;25.85;;;128.80;2252.80;;;;;;5044277;28;20040;-80
2023/02/12 08:41:16;;;;;;;48.78;25.40;;;128.80;2252.80;;;;;;5038293;28;20060;-82
2023/02/12 08:43:42;;;;;;;49.00;25.13;;;128.90;2252.80;;;;;;5039276;28;20029;-80
2023/02/12 08:46:12;;;;;;;;;;;153.60;2252.80;;;;;;5043400;28;20045;-80
2023/02/12 08:48:39;;;;;;;51.17;24.25;;;153.70;2252.80;;;;;;5029710;28;19905;-81
2023/02/12 08:51:14;;;;;;;41.10;23.63;;;153.60;2252.80;;;;;;5030633;28;20163;-81
2023/02/12 08:53:41;;;;;;;41.22;21.98;;;153.80;2252.80;;;;;;5022080;28;20065;-81
2023/02/12 08:56:08;;;;;;;43.58;22.77;;;153.80;2252.80;;;;;;5026421;28;20025;-84
2023/02/12 08:58:35;;;;;;;45.00;23.30;;;153.80;2252.80;;;;;;5035375;28;20090;-83
2023/02/12 09:01:02;;;;;;;42.38;22.95;;;153.70;2252.80;;;;;;5018805;28;20026;-81
2023/02/12 09:03:27;;;;;;;45.67;24.75;;;153.70;2252.80;;;;;;5033377;28;20116;-87
2023/02/12 09:05:53;;;;;;;;;;;153.70;2252.80;;;;;;5033274;28;20131;-82
2023/02/12 09:08:19;;;;;;;53.65;27.52;;;153.70;2252.80;;;;;;5048044;28;19993;-90
2023/02/12 09:10:44;;;;;;;;;;;153.80;2252.80;;;;;;5046102;28;20024;-82
2023/02/12 09:13:11;;;;;;;50.90;26.55;;;153.70;2252.80;;;;;;5045913;28;19948;-83
2023/02/12 09:15:42;;;;;;;53.80;26.80;;;153.80;2252.80;;;;;;5031417;28;20481;-78
2023/02/12 09:18:09;;;;;;;49.50;24.95;;;153.80;2252.80;;;;;;5047833;28;20040;-80
2023/02/12 09:20:38;;;;;;;50.88;24.63;;;153.70;2252.80;;;;;;5025206;28;20449;-80
2023/02/12 09:23:05;;;;;;;48.60;25.85;;;153.70;2252.80;;;;;;5029781;28;20028;-80
2023/02/12 09:25:33;;;;;;;54.75;27.80;;;153.80;2252.80;;;;;;5025149;28;20128;-80
2023/02/12 09:28:02;;;;;;;48.90;26.52;;;153.80;2252.80;;;;;;5038523;28;20117;-81
2023/02/12 09:30:28;;;;;;;48.40;23.67;;;153.80;2252.80;;;;;;5045388;28;20065;-80
2023/02/12 09:32:54;;;;;;;;;;;153.80;2252.80;;;;;;5040052;28;20049;-81
2023/02/12 09:35:20;;;;;;;36.07;18.73;;;153.90;2252.80;;;;;;5036698;28;20394;-81
2023/02/12 09:37:46;;;;;;;;;;;153.90;2252.80;;;;;;5035518;28;20036;-81
2023/02/12 09:40:21;;;;;;;47.03;23.77;;;153.80;2252.80;;;;;;5033017;28;20372;-80
2023/02/12 09:42:55;;;;;;;45.65;25.70;;;153.80;2252.80;;;;;;5032433;28;20033;-80
2023/02/12 09:45:25;;;;;;;48.97;26.58;;;153.80;2252.80;;;;;;5054200;28;20029;-84
2023/02/12 09:48:09;;;;;;;48.40;24.38;;;153.80;2252.80;;;;;;5041207;28;20017;-82
2023/02/12 09:50:56;;;;;;;52.63;28.48;;;153.80;2252.80;;;;;;5033718;28;20032;-82
2023/02/12 09:53:26;;;;;;;;;;;153.90;2252.80;;;;;;5042364;28;20459;-83
2023/02/12 09:55:53;;;;;;;51.17;28.17;;;153.80;2252.80;;;;;;5060649;28;19912;-81
2023/02/12 09:58:45;;;;;;;52.00;26.70;;;153.90;2252.80;;;;;;5041512;28;20159;-82
2023/02/12 10:01:13;;;;;;;50.42;26.88;;;154.00;2252.80;;;;;;4978121;28;20116;-81
2023/02/12 10:03:40;;;;;;;48.80;25.38;;;154.00;2252.80;;;;;;4973702;28;20093;-82
2023/02/12 10:06:14;;;;;;;48.58;25.55;;;154.00;2252.80;;;;;;4983358;28;20058;-80
2023/02/12 10:08:59;;;;;;;54.95;27.73;;;154.20;2252.80;;;;;;4953005;28;20582;-82
2023/02/12 10:11:44;;;;;;;53.03;26.25;;;154.30;2252.80;;;;;;4986268;28;20038;-79
2023/02/12 10:14:21;;;;;;;47.95;26.27;;;154.40;2252.80;;;;;;4952296;28;20030;-79
2023/02/12 10:16:56;;;;;;;49.53;25.05;;;179.20;2252.80;;;;;;4960835;28;20030;-77
2023/02/12 10:19:33;;;;;;;49.45;26.90;;;179.40;2252.80;;;;;;4952444;28;20034;-77
2023/02/12 10:22:43;;;;;;;52.10;27.63;;;179.50;2252.80;;;;;;4967286;28;20038;-79
2023/02/12 10:25:37;;;;;;;52.50;27.80;;;179.70;2252.80;;;;;;4933093;28;20076;-78
2023/02/12 10:28:38;;;;;;;54.17;28.02;;;179.90;2252.80;;;;;;4975516;28;20117;-79
2023/02/12 10:31:15;;;;;;;47.15;25.48;;;180.00;2252.80;;;;;;4918066;29;20042;-79
2023/02/12 10:33:47;;;;;;;58.47;29.50;;;180.10;2252.80;;;;;;4902804;29;20047;-82
2023/02/12 10:36:31;;;;;;;55.05;29.45;;;180.10;2252.80;;;;;;4901134;29;20099;-78
2023/02/12 10:39:20;;;;;;;58.33;31.38;;;204.80;2252.80;;;;;;4991909;28;20045;-78
2023/02/12 10:41:53;;;;;;;59.45;30.88;;;204.80;2252.80;;;;;;4996626;28;20046;-78
2023/02/12 10:44:19;;;;;;;58.03;30.17;;;204.80;2252.80;;;;;;5006022;28;20038;-76
2023/02/12 10:46:44;;;;;;;;;;;204.80;2252.80;;;;;;4987971;28;20037;-77
2023/02/12 10:49:14;;;;;;;53.33;27.80;;;204.80;2252.80;;;;;;4991405;28;20011;-77
2023/02/12 10:52:01;;;;;;;57.10;29.88;;;204.80;2252.80;;;;;;4981711;28;20022;-76
2023/02/12 10:54:40;;;;;;;;;;;204.80;2252.80;;;;;;4977035;28;20038;-75
2023/02/12 10:57:26;;;;;;;52.30;25.55;;;204.90;2252.80;;;;;;4976859;28;19967;-77
2023/02/12 10:59:56;;;;;;;58.38;30.83;;;204.90;2252.80;;;;;;4988297;28;20121;-74
2023/02/12 11:02:32;;;;;;;56.90;29.80;;;205.00;2252.80;;;;;;4998568;28;20066;-78
2023/02/12 11:05:00;;;;;;;61.58;30.10;;;205.30;2252.80;;;;;;4976770;28;20039;-76
2023/02/12 11:07:27;;;;;;;55.40;30.25;;;205.30;2252.80;;;;;;5011707;28;20037;-78
2023/02/12 11:09:55;;;;;;;59.08;30.10;;;205.40;2252.80;;;;;;5059010;28;20048;-78
2023/02/12 11:12:46;;;;;;;66.15;33.35;;;205.60;2201.60;;;;;;5045955;28;20064;-77
2023/02/12 11:15:18;;;;;;;63.00;31.02;;;205.70;2201.60;;;;;;5044463;28;20508;-77
2023/02/12 11:17:54;;;;;;;55.15;30.40;;;205.70;2201.60;;;;;;5046553;28;20029;-79
2023/02/12 11:20:24;;;;;;;58.97;30.30;;;230.40;2201.60;;;;;;5043817;28;20029;-78
2023/02/12 11:22:56;;;;;;;59.83;30.27;;;230.50;2150.40;;;;;;5047205;28;20025;-79
2023/02/12 11:25:24;;;;;;;53.03;26.67;;;230.50;2124.80;;;;;;5057129;28;20041;-80
2023/02/12 11:28:04;;;;;;;57.28;31.00;;;230.60;2073.60;;;;;;5047564;28;20025;-77
2023/02/12 11:30:30;;;;;;;52.03;29.45;;;230.70;2073.60;;;;;;5066480;28;20052;-80
2023/02/12 11:33:21;;;;;;;52.45;28.90;;;256.00;1971.20;;;;;;5047284;28;20021;-81
2023/02/12 11:35:55;;;;;;;51.80;30.02;;;256.50;1945.60;;;;;;5031298;28;20082;-79
2023/02/12 11:38:25;;;;;;;57.08;31.48;;;256.90;1894.40;;;;;;5043138;28;20025;-81
2023/02/12 11:40:55;;;;;;;55.88;30.92;;;281.70;1894.40;;;;;;5046151;28;20041;-79
2023/02/12 11:43:23;;;;;;;55.15;29.48;;;282.00;1868.80;;;;;;5048239;28;20071;-79
2023/02/12 11:45:52;;;;;;;53.38;31.50;;;282.20;1868.80;;;;;;5037611;28;20090;-83
2023/02/12 11:48:29;;;;;;;57.08;30.52;;;282.50;1817.60;;;;;;5053399;28;20461;-83
2023/02/12 11:50:58;;;;;;;55.20;30.35;;;282.20;1817.60;;;;;;5055474;28;20040;-82
2023/02/12 11:53:34;;;;;;;49.67;28.98;;;282.40;1792.00;;;;;;5052109;28;20444;-79
2023/02/12 11:56:03;;;;;;;52.72;28.70;;;282.20;1792.00;;;;;;5055423;28;20092;-81
2023/02/12 11:58:29;;;;;;;54.92;30.83;;;307.30;1817.60;;;;;;5050902;28;20029;-81
2023/02/12 12:01:19;;;;;;;50.72;27.85;;;307.30;1792.00;;;;;;5039481;28;20021;-81
2023/02/12 12:03:52;;;;;;;54.47;29.17;;;307.40;1792.00;;;;;;5048518;28;20040;-83
2023/02/12 12:06:56;;;;;;;53.33;26.73;;;307.50;1766.40;;;;;;5042502;28;20036;-80
2023/02/12 12:09:29;;;;;;;42.70;24.58;;;307.80;1766.40;;;;;;4955490;28;20030;-80
2023/02/12 12:12:21;;;;;;;39.97;24.05;;;307.60;1740.80;;;;;;4954416;28;20062;-80
2023/02/12 12:21:19;;;;;;;41.03;24.42;;;307.80;1792.00;;;;;;4972140;28;20440;-79
2023/02/12 12:24:06;;;;;;;37.60;21.27;;;308.10;1792.00;;;;;;4957467;28;20477;-80
2023/02/12 12:26:33;;;;;;;40.25;23.40;;;307.50;1792.00;;;;;;4964725;28;20174;-79
2023/02/12 12:29:07;;;;;;;40.03;23.77;;;307.30;1817.60;;;;;;4955593;28;20473;-79
2023/02/12 12:31:43;;;;;;;35.95;22.65;;;307.50;1817.60;;;;;;4967027;28;20060;-78
2023/02/12 12:34:16;;;;;;;40.95;24.00;;;307.50;1817.60;;;;;;4951571;28;20023;-80
2023/02/12 12:37:01;;;;;;;36.97;22.50;;;307.60;1817.60;;;;;;4965785;28;20038;-80
2023/02/12 12:39:48;;;;;;;39.10;23.73;;;307.60;1817.60;;;;;;4961706;28;20023;-80
2023/02/12 12:42:45;;;;;;;28.30;16.00;;;307.60;1817.60;;;;;;4965274;28;20122;-80
2023/02/12 12:45:33;;;;;;;39.17;22.15;;;307.50;1843.20;;;;;;5030739;28;20041;-80
2023/02/12 12:48:14;;;;;;;53.90;26.35;;;307.40;1843.20;;;;;;5029121;28;20076;-80